Time;durP1;ratioP1;P1;durP2;ratioP2;P2;SDS_P1;SDS_P2;PMS_P1;PMS_P2;Temp;Humidity;BMP_temperature;BMP_pressure;BME280_temperature;BME280_humidity;BME280_pressure;Samples;Min_cycle;Max_cycle;Signal;HPM_P1;HPM_P2
2023/04/18 00:00:57;;;;;;;0.90;0.90;;;22.30;44.70;;;;;;5012375;28;20064;-63
2023/04/18 00:03:25;;;;;;;0.70;0.70;;;22.30;44.70;;;;;;5010974;28;20137;-63
2023/04/18 00:05:52;;;;;;;1.05;1.02;;;22.30;44.70;;;;;;5011483;28;20109;-63
2023/04/18 00:08:19;;;;;;;1.20;1.10;;;22.30;44.80;;;;;;5011594;28;20046;-63
2023/04/18 00:10:46;;;;;;;1.08;0.98;;;22.30;44.80;;;;;;4992951;28;20068;-63
2023/04/18 00:13:17;;;;;;;1.08;0.98;;;22.30;44.80;;;;;;4995031;28;20509;-63
2023/04/18 00:15:45;;;;;;;1.02;1.02;;;22.30;44.80;;;;;;4992836;28;20053;-63
2023/04/18 00:18:16;;;;;;;1.35;1.25;;;22.30;44.80;;;;;;4992326;28;20053;-63
2023/04/18 00:20:44;;;;;;;1.42;1.33;;;22.30;44.90;;;;;;4993403;28;20133;-63
2023/04/18 00:23:12;;;;;;;1.33;1.23;;;22.20;44.80;;;;;;4993398;28;20460;-63
2023/04/18 00:25:40;;;;;;;0.80;0.80;;;22.20;44.80;;;;;;4992065;28;20122;-63
2023/04/18 00:28:07;;;;;;;0.95;0.95;;;22.20;44.80;;;;;;4992367;28;20078;-63
2023/04/18 00:30:34;;;;;;;1.38;1.00;;;22.30;44.80;;;;;;4992827;28;20054;-63
2023/04/18 00:33:03;;;;;;;0.90;0.90;;;22.30;44.80;;;;;;4991483;28;20089;-63
2023/04/18 00:35:30;;;;;;;1.10;1.10;;;22.20;44.80;;;;;;4991738;28;20054;-63
2023/04/18 00:37:58;;;;;;;1.40;1.35;;;22.20;44.70;;;;;;4995064;28;20077;-63
2023/04/18 00:40:25;;;;;;;0.70;0.70;;;22.20;44.70;;;;;;4995684;28;20716;-63
2023/04/18 00:42:52;;;;;;;1.33;1.23;;;22.20;44.70;;;;;;5005738;28;20046;-63
2023/04/18 00:45:19;;;;;;;1.25;1.13;;;22.20;44.80;;;;;;5015187;28;20050;-63
2023/04/18 00:47:46;;;;;;;0.93;0.93;;;22.20;44.70;;;;;;5015032;28;20096;-63
2023/04/18 00:50:14;;;;;;;1.40;1.30;;;22.20;44.80;;;;;;5005406;28;20053;-63
2023/04/18 00:52:42;;;;;;;1.27;1.17;;;22.20;44.80;;;;;;4996728;28;20483;-63
2023/04/18 00:55:10;;;;;;;1.15;1.05;;;22.20;44.80;;;;;;4995837;28;20050;-63
2023/04/18 00:57:37;;;;;;;1.58;1.48;;;22.20;44.80;;;;;;4996282;28;20047;-63
2023/04/18 01:00:09;;;;;;;1.30;1.10;;;22.20;44.80;;;;;;4996502;28;20486;-63
2023/04/18 01:02:38;;;;;;;1.60;1.50;;;22.20;44.80;;;;;;4996606;28;20112;-63
2023/04/18 01:05:06;;;;;;;1.07;1.07;;;22.20;44.80;;;;;;4996141;28;20486;-63
2023/04/18 01:07:36;;;;;;;1.05;1.00;;;22.20;44.80;;;;;;5006647;28;20066;-63
2023/04/18 01:10:03;;;;;;;1.48;1.27;;;22.10;44.70;;;;;;4995644;28;20042;-63
2023/04/18 01:12:30;;;;;;;1.15;1.10;;;22.10;44.70;;;;;;4996276;28;20050;-62
2023/04/18 01:14:59;;;;;;;0.95;0.95;;;22.10;44.70;;;;;;4995043;28;20054;-64
2023/04/18 01:17:27;;;;;;;1.17;1.08;;;22.10;44.80;;;;;;4995318;28;20042;-63
2023/04/18 01:19:55;;;;;;;1.48;1.38;;;22.10;44.70;;;;;;4995500;28;20108;-63
2023/04/18 01:22:22;;;;;;;1.42;1.02;;;22.20;44.80;;;;;;4996261;28;20050;-63
2023/04/18 01:24:49;;;;;;;1.48;1.38;;;22.10;44.70;;;;;;4995986;28;20089;-63
2023/04/18 01:27:17;;;;;;;1.02;1.00;;;22.20;44.80;;;;;;5012836;28;20133;-63
2023/04/18 01:29:44;;;;;;;1.10;1.10;;;22.10;44.70;;;;;;5014260;28;20050;-63
2023/04/18 01:32:11;;;;;;;1.13;1.00;;;22.20;44.80;;;;;;5001353;28;20056;-63
2023/04/18 01:34:38;;;;;;;3.50;1.15;;;22.20;44.70;;;;;;4995695;28;20056;-63
2023/04/18 01:37:05;;;;;;;1.20;1.10;;;22.20;44.70;;;;;;4995743;28;20050;-63
2023/04/18 01:39:32;;;;;;;1.50;1.40;;;22.20;44.70;;;;;;4995770;28;20129;-63
2023/04/18 01:42:00;;;;;;;1.38;1.27;;;22.20;44.70;;;;;;4996246;28;20050;-64
2023/04/18 01:44:28;;;;;;;1.40;1.30;;;22.20;44.70;;;;;;4995173;28;20054;-63
2023/04/18 01:46:55;;;;;;;1.92;1.50;;;22.20;44.70;;;;;;4995887;28;20064;-63
2023/04/18 01:49:22;;;;;;;1.60;1.50;;;22.20;44.70;;;;;;4994404;28;20050;-63
2023/04/18 01:51:50;;;;;;;1.58;1.45;;;22.20;44.70;;;;;;4994493;28;20405;-63
2023/04/18 01:54:17;;;;;;;1.55;1.45;;;22.20;44.70;;;;;;4995287;28;20056;-63
2023/04/18 01:56:44;;;;;;;1.00;1.00;;;22.20;44.70;;;;;;4994797;28;20054;-63
2023/04/18 01:59:11;;;;;;;1.38;1.27;;;22.20;44.80;;;;;;4994058;28;20418;-63
2023/04/18 02:01:39;;;;;;;1.60;1.50;;;22.20;44.80;;;;;;4994931;28;20425;-63
2023/04/18 02:04:06;;;;;;;2.00;1.45;;;22.20;45.30;;;;;;4994275;28;20058;-64
2023/04/18 02:06:33;;;;;;;1.75;1.58;;;22.10;44.80;;;;;;4995247;28;20085;-63
2023/04/18 02:09:00;;;;;;;1.40;1.30;;;22.20;44.80;;;;;;4995261;28;20056;-64
2023/04/18 02:11:28;;;;;;;1.08;1.00;;;22.10;44.70;;;;;;4995263;28;20478;-63
2023/04/18 02:13:56;;;;;;;1.10;1.10;;;22.20;44.80;;;;;;4994683;28;20061;-63
2023/04/18 02:16:23;;;;;;;1.50;1.40;;;22.10;44.70;;;;;;4994861;28;20060;-63
2023/04/18 02:18:51;;;;;;;1.20;1.20;;;22.10;44.70;;;;;;4994599;28;20053;-63
2023/04/18 02:21:18;;;;;;;1.20;1.10;;;22.10;44.70;;;;;;4994429;28;20050;-63
2023/04/18 02:23:45;;;;;;;2.17;1.60;;;22.10;44.80;;;;;;4993168;28;20054;-63
2023/04/18 02:26:12;;;;;;;1.40;1.27;;;22.10;44.80;;;;;;4994260;28;20051;-64
2023/04/18 02:28:39;;;;;;;1.60;1.50;;;22.10;44.70;;;;;;4995072;28;20060;-63
2023/04/18 02:31:13;;;;;;;0.90;0.90;;;22.10;44.70;;;;;;4994299;28;20058;-63
2023/04/18 02:33:46;;;;;;;1.20;1.10;;;22.10;44.70;;;;;;4994703;28;20046;-63
2023/04/18 02:36:13;;;;;;;1.70;1.38;;;22.10;44.80;;;;;;4994743;28;20054;-63
2023/04/18 02:38:40;;;;;;;1.50;1.40;;;22.10;44.70;;;;;;4995033;28;20548;-63
2023/04/18 02:41:07;;;;;;;1.50;1.40;;;22.10;44.80;;;;;;4994900;28;20046;-63
2023/04/18 02:43:35;;;;;;;1.20;1.10;;;22.10;44.70;;;;;;4999777;28;20046;-63
2023/04/18 02:46:02;;;;;;;1.40;1.30;;;22.10;44.70;;;;;;5010627;28;20054;-63
2023/04/18 02:48:29;;;;;;;1.05;1.05;;;22.10;44.70;;;;;;5012985;28;20051;-63
2023/04/18 02:51:02;;;;;;;1.65;1.40;;;22.00;44.70;;;;;;5013308;28;20465;-63
2023/04/18 02:53:30;;;;;;;1.33;1.23;;;22.00;44.70;;;;;;5004121;28;20046;-63
2023/04/18 02:55:57;;;;;;;1.55;1.45;;;22.10;44.80;;;;;;4994063;28;20057;-63
2023/04/18 02:58:25;;;;;;;1.63;1.38;;;22.10;44.70;;;;;;4994432;28;20479;-63
2023/04/18 03:00:53;;;;;;;2.00;1.50;;;22.10;44.70;;;;;;4994023;28;20421;-64
2023/04/18 03:03:21;;;;;;;1.48;1.38;;;22.10;44.80;;;;;;4994701;28;20447;-64
2023/04/18 03:05:48;;;;;;;1.40;1.30;;;22.10;44.70;;;;;;4993562;28;20043;-63
2023/04/18 03:08:15;;;;;;;1.45;1.35;;;22.10;45.30;;;;;;4993714;28;20150;-64
2023/04/18 03:10:42;;;;;;;2.28;1.55;;;22.10;44.70;;;;;;4994437;28;20050;-63
2023/04/18 03:13:09;;;;;;;1.10;1.10;;;22.00;45.30;;;;;;4994430;28;20054;-63
2023/04/18 03:15:36;;;;;;;1.40;1.30;;;22.00;44.70;;;;;;4993659;28;20054;-63
2023/04/18 03:18:04;;;;;;;1.40;1.30;;;22.00;44.70;;;;;;4994447;28;20085;-63
2023/04/18 03:20:32;;;;;;;1.05;1.05;;;22.10;44.80;;;;;;4993520;28;20070;-63
2023/04/18 03:22:59;;;;;;;1.58;1.48;;;22.00;45.20;;;;;;4993363;28;20486;-63
2023/04/18 03:25:26;;;;;;;1.50;1.40;;;22.10;44.70;;;;;;4994002;28;20140;-63
2023/04/18 03:27:53;;;;;;;1.20;1.10;;;22.10;44.70;;;;;;4993986;28;20046;-64
2023/04/18 03:30:20;;;;;;;1.20;1.10;;;22.10;44.80;;;;;;4993839;28;20417;-64
2023/04/18 03:32:48;;;;;;;1.30;1.20;;;22.10;44.80;;;;;;4994238;28;20043;-63
2023/04/18 03:35:15;;;;;;;1.10;1.02;;;22.10;44.70;;;;;;4993617;28;20060;-63
2023/04/18 03:37:42;;;;;;;1.42;1.30;;;22.10;44.70;;;;;;4993920;28;20061;-63
2023/04/18 03:40:10;;;;;;;1.23;1.17;;;22.10;44.70;;;;;;4993761;28;20562;-63
2023/04/18 03:42:37;;;;;;;1.42;1.33;;;22.10;44.70;;;;;;4993470;28;20046;-63
2023/04/18 03:45:04;;;;;;;1.38;1.25;;;22.10;44.70;;;;;;4992994;28;20410;-63
2023/04/18 03:47:32;;;;;;;1.13;1.10;;;22.10;44.70;;;;;;4993684;28;20411;-63
2023/04/18 03:49:59;;;;;;;1.33;1.23;;;22.00;44.70;;;;;;4992966;28;20057;-63
2023/04/18 03:52:26;;;;;;;1.08;1.02;;;22.10;44.70;;;;;;4993200;28;20046;-64
2023/04/18 03:54:55;;;;;;;1.67;1.58;;;22.00;44.70;;;;;;4998938;28;20089;-63
2023/04/18 03:57:22;;;;;;;1.70;1.35;;;22.00;44.70;;;;;;5003060;28;20046;-63
2023/04/18 03:59:50;;;;;;;1.67;1.52;;;22.00;44.70;;;;;;4993019;28;20054;-63
2023/04/18 04:02:17;;;;;;;1.50;1.40;;;22.00;44.70;;;;;;5006002;28;20054;-63
2023/04/18 04:04:44;;;;;;;1.90;1.58;;;22.00;44.70;;;;;;5007222;28;20083;-63
2023/04/18 04:07:11;;;;;;;1.55;1.35;;;22.00;44.70;;;;;;5004821;28;20050;-63
2023/04/18 04:09:38;;;;;;;1.35;1.25;;;22.00;44.70;;;;;;4995162;28;20049;-63
2023/04/18 04:12:05;;;;;;;1.70;1.60;;;22.00;44.80;;;;;;5003250;28;20422;-63
2023/04/18 04:14:32;;;;;;;1.42;1.33;;;22.00;44.70;;;;;;5001245;28;20133;-63
2023/04/18 04:17:00;;;;;;;1.40;1.30;;;22.00;44.80;;;;;;4999050;28;20057;-63
2023/04/18 04:19:27;;;;;;;1.33;1.23;;;22.00;44.70;;;;;;4997150;28;20487;-63
2023/04/18 04:21:54;;;;;;;1.20;1.20;;;22.00;44.70;;;;;;4996717;28;20054;-63
2023/04/18 04:24:21;;;;;;;1.75;1.65;;;22.00;44.70;;;;;;5008513;28;20055;-63
2023/04/18 04:26:49;;;;;;;1.20;1.20;;;22.00;44.70;;;;;;5009777;28;20478;-63
2023/04/18 04:29:17;;;;;;;1.30;1.20;;;22.00;44.70;;;;;;5010818;28;20560;-63
2023/04/18 04:31:44;;;;;;;1.35;1.25;;;22.00;44.70;;;;;;5005624;28;20073;-63
2023/04/18 04:34:12;;;;;;;0.98;0.98;;;22.00;44.70;;;;;;5001616;28;20548;-63
2023/04/18 04:36:40;;;;;;;3.35;1.52;;;22.00;44.70;;;;;;5001193;28;20112;-64
2023/04/18 04:39:07;;;;;;;1.70;1.60;;;22.00;44.70;;;;;;4998539;28;20540;-63
2023/04/18 04:41:36;;;;;;;1.80;1.70;;;22.00;44.70;;;;;;5009445;28;20057;-63
2023/04/18 04:44:03;;;;;;;2.22;1.63;;;22.00;44.70;;;;;;5012441;28;20046;-63
2023/04/18 04:46:31;;;;;;;1.45;1.35;;;22.00;44.70;;;;;;5009507;28;20047;-63
2023/04/18 04:48:59;;;;;;;1.80;1.70;;;21.90;44.70;;;;;;5013383;28;20053;-62
2023/04/18 04:51:26;;;;;;;1.77;1.67;;;21.90;44.80;;;;;;5010261;28;20081;-63
2023/04/18 04:53:54;;;;;;;1.85;1.75;;;21.90;44.80;;;;;;4996259;28;20058;-63
2023/04/18 04:56:21;;;;;;;1.40;1.30;;;21.90;44.80;;;;;;5002454;28;20103;-63
2023/04/18 04:58:49;;;;;;;2.03;1.77;;;22.00;44.80;;;;;;5001998;28;20503;-63
2023/04/18 05:01:16;;;;;;;1.70;1.40;;;21.90;44.80;;;;;;5006464;28;20057;-63
2023/04/18 05:03:44;;;;;;;1.40;1.30;;;21.90;44.70;;;;;;5012401;28;20402;-63
2023/04/18 05:06:11;;;;;;;2.22;1.90;;;21.90;44.70;;;;;;5007222;28;20046;-63
2023/04/18 05:08:38;;;;;;;1.70;1.20;;;21.90;44.70;;;;;;5016478;28;20046;-62
2023/04/18 05:11:06;;;;;;;1.50;1.40;;;21.90;44.60;;;;;;5000097;28;20145;-63
2023/04/18 05:13:33;;;;;;;1.73;1.58;;;21.90;44.60;;;;;;5006992;28;20057;-64
2023/04/18 05:16:00;;;;;;;1.67;1.58;;;21.90;44.60;;;;;;5008058;28;20046;-62
2023/04/18 05:18:27;;;;;;;1.52;1.30;;;22.00;44.70;;;;;;5010368;28;20058;-63
2023/04/18 05:20:55;;;;;;;1.67;1.48;;;22.00;44.70;;;;;;5006245;28;20512;-63
2023/04/18 05:23:22;;;;;;;1.48;1.38;;;22.00;44.70;;;;;;5007691;28;20060;-63
2023/04/18 05:25:50;;;;;;;2.33;1.63;;;22.00;44.70;;;;;;5007038;28;20128;-63
2023/04/18 05:28:17;;;;;;;1.40;1.30;;;22.00;44.80;;;;;;5007485;28;20421;-63
2023/04/18 05:30:44;;;;;;;2.47;1.50;;;22.10;44.90;;;;;;5006825;28;20128;-61
2023/04/18 05:33:11;;;;;;;1.70;1.60;;;22.10;44.90;;;;;;5005809;28;20050;-61
2023/04/18 05:35:38;;;;;;;2.15;1.95;;;22.20;44.90;;;;;;5008130;28;20049;-61
2023/04/18 05:38:06;;;;;;;3.08;2.38;;;22.20;44.80;;;;;;5006234;28;20485;-61
2023/04/18 05:40:33;;;;;;;2.25;2.05;;;22.20;45.30;;;;;;5008164;28;20056;-60
2023/04/18 05:43:01;;;;;;;2.63;2.05;;;22.30;44.70;;;;;;5003262;28;20057;-62
2023/04/18 05:45:29;;;;;;;2.55;2.15;;;22.30;44.60;;;;;;5001408;28;20058;-61
2023/04/18 05:47:56;;;;;;;2.47;2.28;;;22.40;44.60;;;;;;5008861;28;20046;-60
2023/04/18 05:50:23;;;;;;;1.85;1.73;;;22.40;44.70;;;;;;5007772;28;20061;-61
2023/04/18 05:52:50;;;;;;;2.63;2.08;;;22.40;44.70;;;;;;5001825;28;20050;-62
2023/04/18 05:55:18;;;;;;;2.70;2.08;;;22.50;44.80;;;;;;5007399;28;20053;-61
2023/04/18 05:57:45;;;;;;;6.10;2.10;;;22.50;44.80;;;;;;5004852;28;20046;-62
2023/04/18 06:00:13;;;;;;;2.50;2.28;;;22.50;44.80;;;;;;5001531;28;20509;-63
2023/04/18 06:02:40;;;;;;;2.53;1.95;;;22.60;44.80;;;;;;5003994;28;20379;-62
2023/04/18 06:05:08;;;;;;;3.05;2.08;;;22.60;44.80;;;;;;5001132;28;20058;-62
2023/04/18 06:07:36;;;;;;;3.28;1.90;;;22.60;44.80;;;;;;4985901;28;20056;-62
2023/04/18 06:10:07;;;;;;;17.08;2.42;;;22.70;44.90;;;;;;5001335;28;20065;-61
2023/04/18 06:12:35;;;;;;;4.40;2.10;;;22.70;45.00;;;;;;5000304;28;20189;-63
2023/04/18 06:15:04;;;;;;;3.97;1.95;;;22.70;45.00;;;;;;5000244;28;20042;-62
2023/04/18 06:17:31;;;;;;;2.90;2.15;;;22.70;45.50;;;;;;5001732;28;20045;-62
2023/04/18 06:19:58;;;;;;;3.63;2.20;;;22.70;45.00;;;;;;5003739;28;20136;-62
2023/04/18 06:22:25;;;;;;;4.63;2.53;;;22.80;45.10;;;;;;5002990;28;20514;-62
2023/04/18 06:24:54;;;;;;;3.28;2.10;;;22.80;45.00;;;;;;5000881;28;20061;-61
2023/04/18 06:27:22;;;;;;;2.40;2.08;;;22.90;45.00;;;;;;4981030;28;20054;-61
2023/04/18 06:29:57;;;;;;;3.28;2.17;;;22.90;45.00;;;;;;5000834;28;20076;-60
2023/04/18 06:32:24;;;;;;;4.60;2.13;;;22.90;44.90;;;;;;5000807;28;20627;-61
2023/04/18 06:34:52;;;;;;;6.82;2.83;;;23.00;44.90;;;;;;5002543;28;20136;-60
2023/04/18 06:37:19;;;;;;;4.63;2.78;;;23.00;44.70;;;;;;5002026;28;20054;-63
2023/04/18 06:39:46;;;;;;;3.90;2.58;;;23.00;44.80;;;;;;4999737;28;20046;-61
2023/04/18 06:42:13;;;;;;;4.25;2.65;;;23.00;44.90;;;;;;5000406;28;20056;-61
2023/04/18 06:44:42;;;;;;;2.60;2.40;;;23.10;45.00;;;;;;5001847;28;20406;-61
2023/04/18 06:47:10;;;;;;;2.45;2.25;;;23.10;44.80;;;;;;5000987;28;20050;-61
2023/04/18 06:49:37;;;;;;;2.58;2.33;;;23.10;45.20;;;;;;5003377;28;20108;-62
2023/04/18 06:52:05;;;;;;;2.40;2.20;;;23.10;44.60;;;;;;5002159;28;20565;-61
2023/04/18 06:54:32;;;;;;;2.40;2.20;;;23.10;44.50;;;;;;5002272;28;20077;-61
2023/04/18 06:57:01;;;;;;;3.50;2.30;;;23.10;44.70;;;;;;4999545;28;20061;-63
2023/04/18 06:59:28;;;;;;;2.67;2.47;;;23.10;44.50;;;;;;5001553;28;20138;-61
2023/04/18 07:01:55;;;;;;;3.42;2.58;;;23.10;44.50;;;;;;5000340;28;20501;-63
2023/04/18 07:04:23;;;;;;;3.47;2.60;;;23.20;44.60;;;;;;5001118;28;20096;-64
2023/04/18 07:06:51;;;;;;;3.83;2.90;;;23.20;44.60;;;;;;5002772;28;20045;-61
2023/04/18 07:09:18;;;;;;;3.45;2.70;;;23.20;44.40;;;;;;5001174;28;20164;-63
2023/04/18 07:11:45;;;;;;;2.55;2.35;;;23.20;44.40;;;;;;4999755;28;20050;-62
2023/04/18 07:14:12;;;;;;;5.13;2.72;;;23.30;44.40;;;;;;5003513;28;20149;-63
2023/04/18 07:16:40;;;;;;;4.20;2.65;;;23.30;44.30;;;;;;5002587;28;20107;-63
2023/04/18 07:19:07;;;;;;;3.15;2.42;;;23.30;44.20;;;;;;5002008;28;20076;-63
2023/04/18 07:21:36;;;;;;;3.58;2.85;;;23.40;44.10;;;;;;4999202;28;20073;-62
2023/04/18 07:24:03;;;;;;;3.92;2.83;;;23.40;44.00;;;;;;5010716;28;20688;-62
2023/04/18 07:26:31;;;;;;;4.30;2.25;;;23.40;43.90;;;;;;4997235;28;20096;-61
2023/04/18 07:29:00;;;;;;;3.00;2.58;;;23.40;43.80;;;;;;4999461;28;21453;-63
2023/04/18 07:31:27;;;;;;;2.72;2.42;;;23.50;43.90;;;;;;5000206;28;20144;-63
2023/04/18 07:33:55;;;;;;;5.05;2.80;;;23.50;43.80;;;;;;4998371;28;20049;-64
2023/04/18 07:36:22;;;;;;;2.88;2.60;;;23.60;43.90;;;;;;5002517;28;20065;-63
2023/04/18 07:38:50;;;;;;;3.38;2.22;;;23.60;44.00;;;;;;5000971;28;20421;-63
2023/04/18 07:41:18;;;;;;;3.22;2.38;;;23.60;44.10;;;;;;5003454;28;20057;-64
2023/04/18 07:43:45;;;;;;;2.53;2.15;;;23.70;44.20;;;;;;5001054;28;20052;-65
2023/04/18 07:46:12;;;;;;;2.53;2.30;;;23.70;44.10;;;;;;5001923;28;20050;-63
2023/04/18 07:48:40;;;;;;;2.65;2.45;;;23.80;44.00;;;;;;4999146;28;20127;-64
2023/04/18 07:51:07;;;;;;;6.75;2.65;;;23.90;44.00;;;;;;5001955;28;20489;-62
2023/04/18 07:53:35;;;;;;;2.47;2.22;;;23.90;43.90;;;;;;5002094;28;20128;-61
2023/04/18 07:56:02;;;;;;;3.75;2.90;;;24.00;43.70;;;;;;5000033;28;20398;-62
2023/04/18 07:58:29;;;;;;;3.63;2.30;;;24.00;43.50;;;;;;5003517;28;20710;-64
2023/04/18 08:00:56;;;;;;;4.05;2.65;;;24.10;43.40;;;;;;4981452;28;20064;-62
2023/04/18 08:03:23;;;;;;;2.53;2.33;;;24.10;43.20;;;;;;4999927;28;20056;-62
2023/04/18 08:05:51;;;;;;;4.28;2.33;;;24.10;42.90;;;;;;4999116;28;20133;-66
2023/04/18 08:08:19;;;;;;;3.80;2.22;;;24.10;42.90;;;;;;5003329;28;20050;-62
2023/04/18 08:10:46;;;;;;;2.08;1.90;;;24.10;42.80;;;;;;5001102;28;20066;-62
2023/04/18 08:13:14;;;;;;;2.10;1.90;;;24.20;42.90;;;;;;4998357;28;20135;-62
2023/04/18 08:15:41;;;;;;;3.30;2.28;;;24.10;42.80;;;;;;4994633;28;20144;-62
2023/04/18 08:18:08;;;;;;;4.07;2.03;;;24.10;42.80;;;;;;4996633;28;20050;-61
2023/04/18 08:20:36;;;;;;;2.33;2.08;;;24.10;43.00;;;;;;5000093;28;20065;-60
2023/04/18 08:23:03;;;;;;;2.90;2.25;;;24.10;43.20;;;;;;5001966;28;20046;-60
2023/04/18 08:25:36;;;;;;;2.70;2.30;;;24.10;43.20;;;;;;4999538;28;20129;-60
2023/04/18 08:28:03;;;;;;;2.45;1.85;;;24.10;43.90;;;;;;4997492;28;20050;-61
2023/04/18 08:30:31;;;;;;;2.90;2.25;;;24.10;43.30;;;;;;5000131;28;20112;-63
2023/04/18 08:32:59;;;;;;;3.00;2.08;;;24.10;43.40;;;;;;4984838;28;20065;-63
2023/04/18 08:35:26;;;;;;;2.08;1.88;;;24.20;43.50;;;;;;4998781;28;20149;-62
2023/04/18 08:37:53;;;;;;;2.38;2.08;;;24.10;43.40;;;;;;4996998;28;20065;-62
2023/04/18 08:40:21;;;;;;;3.13;1.92;;;24.20;43.50;;;;;;5001341;28;20046;-62
2023/04/18 08:42:51;;;;;;;2.42;2.22;;;24.20;43.60;;;;;;4999391;28;20287;-65
2023/04/18 08:45:18;;;;;;;2.05;1.85;;;24.20;43.60;;;;;;4997072;28;20044;-63
2023/04/18 08:47:46;;;;;;;3.33;2.30;;;24.20;43.70;;;;;;5000470;28;20062;-62
2023/04/18 08:50:13;;;;;;;5.68;1.95;;;24.20;43.70;;;;;;5003758;28;20096;-62
2023/04/18 08:52:47;;;;;;;2.15;1.95;;;24.20;43.70;;;;;;4999913;28;20509;-64
2023/04/18 08:55:15;;;;;;;2.47;2.00;;;24.20;43.60;;;;;;4999753;28;20129;-62
2023/04/18 08:57:43;;;;;;;2.60;2.13;;;24.20;43.60;;;;;;5000348;28;20054;-62
2023/04/18 09:00:11;;;;;;;5.40;2.10;;;24.20;43.70;;;;;;5007320;28;20049;-63
2023/04/18 09:02:45;;;;;;;2.30;1.73;;;24.30;43.70;;;;;;5004849;28;20057;-63
2023/04/18 09:05:16;;;;;;;5.13;2.63;;;24.30;43.70;;;;;;5001004;28;20054;-63
2023/04/18 09:07:43;;;;;;;;;;;24.30;44.40;;;;;;5002408;28;20054;-64
2023/04/18 09:10:11;;;;;;;5.03;2.10;;;24.40;43.70;;;;;;5001593;28;19929;-64
2023/04/18 09:12:49;;;;;;;3.55;2.42;;;24.30;43.60;;;;;;5015030;28;20057;-62
2023/04/18 09:15:19;;;;;;;3.83;2.03;;;24.40;43.60;;;;;;5003462;28;20125;-64
2023/04/18 09:17:49;;;;;;;1.90;1.80;;;24.40;43.50;;;;;;5000091;28;20497;-63
2023/04/18 09:20:41;;;;;;;4.18;2.10;;;24.40;43.60;;;;;;5002526;28;20053;-62
2023/04/18 09:23:13;;;;;;;2.03;1.92;;;24.40;43.50;;;;;;5003641;28;20108;-64
2023/04/18 09:25:47;;;;;;;2.25;1.85;;;24.50;43.60;;;;;;5004523;28;20080;-61
2023/04/18 09:28:29;;;;;;;6.15;2.08;;;24.50;43.50;;;;;;5000906;28;20045;-62
2023/04/18 09:31:08;;;;;;;3.10;1.98;;;24.50;43.60;;;;;;5005378;28;20045;-62
2023/04/18 09:33:38;;;;;;;2.22;1.92;;;24.50;43.60;;;;;;5006974;28;20196;-63
2023/04/18 09:36:21;;;;;;;3.97;1.90;;;24.50;43.60;;;;;;5005228;28;21832;-63
2023/04/18 09:38:50;;;;;;;2.17;1.90;;;24.50;43.50;;;;;;5001522;28;20061;-63
2023/04/18 09:41:22;;;;;;;2.75;1.88;;;24.50;43.50;;;;;;5001723;28;20056;-64
2023/04/18 09:44:08;;;;;;;1.75;1.65;;;24.50;43.50;;;;;;5005318;28;20060;-65
2023/04/18 09:46:40;;;;;;;1.70;1.60;;;24.50;43.40;;;;;;5002072;28;20057;-64
2023/04/18 09:49:07;;;;;;;3.35;2.00;;;24.50;43.30;;;;;;5002853;28;20038;-65
2023/04/18 09:51:39;;;;;;;3.30;2.22;;;24.50;43.30;;;;;;5004340;28;20046;-64
2023/04/18 09:54:09;;;;;;;2.15;1.90;;;24.50;43.30;;;;;;5004344;28;20061;-62
2023/04/18 09:56:40;;;;;;;1.95;1.85;;;24.50;43.80;;;;;;5004965;28;20049;-61
2023/04/18 09:59:08;;;;;;;2.53;1.60;;;24.50;43.10;;;;;;5005316;28;20417;-67
2023/04/18 10:01:36;;;;;;;2.83;1.90;;;24.50;43.10;;;;;;5003411;28;20061;-65
2023/04/18 10:04:06;;;;;;;3.40;1.98;;;24.60;43.10;;;;;;5000930;28;20050;-67
2023/04/18 10:06:38;;;;;;;2.20;2.05;;;24.60;43.00;;;;;;5000608;28;20041;-64
2023/04/18 10:09:08;;;;;;;2.33;1.63;;;24.60;42.80;;;;;;5004045;28;20456;-64
2023/04/18 10:11:36;;;;;;;1.85;1.75;;;24.50;42.70;;;;;;5004470;28;20133;-63
2023/04/18 10:14:08;;;;;;;6.65;1.88;;;24.60;42.70;;;;;;5003279;28;20092;-63
2023/04/18 10:16:36;;;;;;;2.17;1.95;;;24.60;42.70;;;;;;5003273;28;20050;-64
2023/04/18 10:19:25;;;;;;;2.35;2.13;;;24.60;42.60;;;;;;5004145;28;20089;-63
2023/04/18 10:21:54;;;;;;;4.78;2.15;;;24.60;42.50;;;;;;5002236;28;20054;-65
2023/04/18 10:24:51;;;;;;;1.98;1.77;;;24.60;42.50;;;;;;5001672;28;20510;-63
2023/04/18 10:27:57;;;;;;;4.07;1.98;;;24.60;42.40;;;;;;4999655;28;20414;-64
2023/04/18 10:30:48;;;;;;;2.60;2.20;;;24.60;42.40;;;;;;5004193;28;20565;-63
2023/04/18 10:33:25;;;;;;;2.22;2.05;;;24.70;42.40;;;;;;4999826;28;20524;-63
2023/04/18 10:36:19;;;;;;;2.10;1.85;;;24.70;42.30;;;;;;5002095;28;20424;-62
2023/04/18 10:38:50;;;;;;;1.80;1.70;;;24.70;42.30;;;;;;5019091;28;20413;-59
2023/04/18 10:41:32;;;;;;;2.60;2.05;;;24.70;42.30;;;;;;5003624;28;20038;-61
2023/04/18 10:44:14;;;;;;;2.00;1.80;;;24.70;42.30;;;;;;5007042;28;20058;-62
2023/04/18 10:47:22;;;;;;;2.47;2.00;;;24.70;42.20;;;;;;5001232;28;20053;-63
2023/04/18 10:49:55;;;;;;;1.90;1.80;;;24.70;42.30;;;;;;5021178;28;20097;-61
2023/04/18 10:52:23;;;;;;;2.15;1.98;;;24.70;42.30;;;;;;4999539;28;20045;-61
2023/04/18 10:54:54;;;;;;;3.38;2.20;;;24.70;42.30;;;;;;4998820;28;20076;-61
2023/04/18 10:57:40;;;;;;;2.05;1.85;;;24.70;42.30;;;;;;5002497;28;20053;-61
2023/04/18 11:00:12;;;;;;;2.25;2.03;;;24.70;42.40;;;;;;5003154;28;20052;-63
2023/04/18 11:02:46;;;;;;;3.17;2.22;;;24.70;42.30;;;;;;5004263;28;20068;-62
2023/04/18 11:05:25;;;;;;;1.67;1.58;;;24.70;42.30;;;;;;5000436;28;20073;-63
2023/04/18 11:07:54;;;;;;;4.10;1.85;;;24.70;42.40;;;;;;5000466;28;20140;-63
2023/04/18 11:10:24;;;;;;;4.00;1.85;;;24.70;42.40;;;;;;5000630;28;20054;-62
2023/04/18 11:12:53;;;;;;;2.53;2.33;;;24.70;42.40;;;;;;4998941;28;20406;-64
2023/04/18 11:15:22;;;;;;;3.05;2.22;;;24.70;42.40;;;;;;5000926;28;20050;-64
2023/04/18 11:18:01;;;;;;;1.83;1.73;;;24.70;42.50;;;;;;4999389;28;20046;-63
2023/04/18 11:20:36;;;;;;;4.18;2.50;;;24.70;42.50;;;;;;5002365;28;20037;-62
2023/04/18 11:23:03;;;;;;;2.33;2.13;;;24.70;42.50;;;;;;5002631;28;20065;-62
2023/04/18 11:25:34;;;;;;;1.90;1.80;;;24.70;42.50;;;;;;4999836;28;20049;-63
2023/04/18 11:28:03;;;;;;;4.20;2.15;;;24.60;42.40;;;;;;4997660;28;20042;-62
2023/04/18 11:30:38;;;;;;;3.50;1.85;;;24.60;42.50;;;;;;5002207;28;20144;-63
2023/04/18 11:33:10;;;;;;;2.58;2.33;;;24.60;42.50;;;;;;4999574;28;20074;-63
2023/04/18 11:35:42;;;;;;;6.63;2.03;;;24.60;42.60;;;;;;5000363;28;20050;-62
2023/04/18 11:38:12;;;;;;;2.63;2.15;;;24.60;42.70;;;;;;4998340;28;20521;-60
2023/04/18 11:40:47;;;;;;;2.30;2.10;;;24.60;42.30;;;;;;5002743;28;20546;-61
2023/04/18 11:43:20;;;;;;;2.63;2.05;;;24.50;42.20;;;;;;4999832;28;20050;-63
2023/04/18 11:45:53;;;;;;;2.92;1.90;;;24.50;42.70;;;;;;5001337;28;20509;-63
2023/04/18 11:48:21;;;;;;;2.35;2.08;;;24.50;43.00;;;;;;5001389;28;20054;-61
2023/04/18 11:50:48;;;;;;;3.33;1.77;;;24.50;43.20;;;;;;4999685;28;20054;-62
2023/04/18 11:53:34;;;;;;;1.52;1.42;;;24.60;43.20;;;;;;5000784;28;20049;-62
2023/04/18 11:56:02;;;;;;;2.30;2.10;;;24.60;43.20;;;;;;4999908;28;20053;-62
2023/04/18 11:58:35;;;;;;;1.98;1.67;;;24.70;43.10;;;;;;5000187;28;20050;-62
2023/04/18 12:01:20;;;;;;;2.08;1.45;;;24.70;43.00;;;;;;5001836;28;20061;-62
2023/04/18 12:04:05;;;;;;;1.65;1.55;;;24.80;42.90;;;;;;5000386;28;20417;-63
2023/04/18 12:06:47;;;;;;;4.32;1.60;;;24.80;42.80;;;;;;4997672;28;20050;-64
2023/04/18 12:09:16;;;;;;;1.80;1.70;;;24.90;42.60;;;;;;5001488;28;20260;-66
2023/04/18 12:11:43;;;;;;;2.72;1.30;;;24.90;42.30;;;;;;5002037;28;20061;-64
2023/04/18 12:14:21;;;;;;;2.78;2.17;;;25.00;42.20;;;;;;4999346;28;20413;-63
2023/04/18 12:16:49;;;;;;;1.75;1.65;;;25.00;41.90;;;;;;4996303;28;20532;-62
2023/04/18 12:19:19;;;;;;;1.38;1.27;;;25.10;41.80;;;;;;4996967;28;20049;-63
2023/04/18 12:22:05;;;;;;;2.70;1.50;;;25.10;41.60;;;;;;5001321;28;20061;-65
2023/04/18 12:24:32;;;;;;;1.60;1.50;;;25.10;41.70;;;;;;5016375;28;20053;-67
2023/04/18 12:27:00;;;;;;;2.67;1.55;;;25.20;41.70;;;;;;5002267;28;20108;-60
2023/04/18 12:29:28;;;;;;;1.52;1.42;;;25.20;41.70;;;;;;4999882;28;20048;-62
2023/04/18 12:31:55;;;;;;;3.70;1.77;;;25.20;41.80;;;;;;5002812;28;20077;-64
2023/04/18 12:34:23;;;;;;;2.30;1.42;;;25.30;41.90;;;;;;5002382;28;20046;-65
2023/04/18 12:36:50;;;;;;;2.33;1.55;;;25.20;41.80;;;;;;5004770;28;20050;-62
2023/04/18 12:39:17;;;;;;;2.47;1.65;;;25.20;41.90;;;;;;5004796;28;20054;-63
2023/04/18 12:41:46;;;;;;;2.08;1.52;;;25.20;41.90;;;;;;5002398;28;20050;-61
2023/04/18 12:44:16;;;;;;;8.02;1.92;;;25.20;41.90;;;;;;5001447;28;20050;-61
2023/04/18 12:46:43;;;;;;;1.25;1.15;;;25.20;41.80;;;;;;5005631;28;20106;-61
2023/04/18 12:49:11;;;;;;;1.23;1.13;;;25.20;41.80;;;;;;5002759;28;20138;-61
2023/04/18 12:51:39;;;;;;;1.10;1.02;;;25.10;41.70;;;;;;5005060;28;20051;-62
2023/04/18 12:54:06;;;;;;;1.40;1.30;;;25.10;41.70;;;;;;5005715;28;20054;-61
2023/04/18 12:56:34;;;;;;;3.67;1.15;;;25.10;41.80;;;;;;5005720;28;20053;-61
2023/04/18 12:59:01;;;;;;;2.90;1.00;;;25.10;41.80;;;;;;5001857;28;20054;-61